sensor_id;sensor_type;location;lat;lon;timestamp;P1;durP1;ratioP1;P2;durP2;ratioP2
12780;SDS011;6454;43.304;24.344;2022-08-19T00:01:15;5.68;;;4.65;;
12780;SDS011;6454;43.304;24.344;2022-08-19T00:03:42;5.25;;;4.75;;
12780;SDS011;6454;43.304;24.344;2022-08-19T00:06:09;5.38;;;4.88;;
12780;SDS011;6454;43.304;24.344;2022-08-19T00:08:37;5.03;;;4.63;;
12780;SDS011;6454;43.304;24.344;2022-08-19T00:11:04;5.40;;;4.57;;
12780;SDS011;6454;43.304;24.344;2022-08-19T00:13:32;5.20;;;4.70;;
12780;SDS011;6454;43.304;24.344;2022-08-19T00:16:03;4.70;;;4.30;;
12780;SDS011;6454;43.304;24.344;2022-08-19T00:18:34;5.20;;;4.80;;
12780;SDS011;6454;43.304;24.344;2022-08-19T00:21:01;5.60;;;4.85;;
12780;SDS011;6454;43.304;24.344;2022-08-19T00:23:31;5.10;;;4.70;;
12780;SDS011;6454;43.304;24.344;2022-08-19T00:26:01;6.55;;;4.60;;
12780;SDS011;6454;43.304;24.344;2022-08-19T00:28:28;5.47;;;4.97;;
12780;SDS011;6454;43.304;24.344;2022-08-19T00:30:55;5.10;;;4.60;;
12780;SDS011;6454;43.304;24.344;2022-08-19T00:33:22;5.13;;;4.57;;
12780;SDS011;6454;43.304;24.344;2022-08-19T00:35:49;5.57;;;4.78;;
12780;SDS011;6454;43.304;24.344;2022-08-19T00:38:16;5.20;;;4.32;;
12780;SDS011;6454;43.304;24.344;2022-08-19T00:40:43;6.07;;;4.85;;
12780;SDS011;6454;43.304;24.344;2022-08-19T00:43:13;5.65;;;4.82;;
12780;SDS011;6454;43.304;24.344;2022-08-19T00:45:46;5.90;;;4.90;;
12780;SDS011;6454;43.304;24.344;2022-08-19T00:48:15;5.43;;;4.55;;
12780;SDS011;6454;43.304;24.344;2022-08-19T00:50:42;5.38;;;4.70;;
12780;SDS011;6454;43.304;24.344;2022-08-19T00:53:10;6.80;;;5.13;;
12780;SDS011;6454;43.304;24.344;2022-08-19T00:55:42;5.18;;;4.78;;
12780;SDS011;6454;43.304;24.344;2022-08-19T00:58:15;6.70;;;5.50;;
12780;SDS011;6454;43.304;24.344;2022-08-19T01:00:44;5.55;;;5.05;;
12780;SDS011;6454;43.304;24.344;2022-08-19T01:03:12;5.40;;;4.90;;
12780;SDS011;6454;43.304;24.344;2022-08-19T01:05:41;4.80;;;4.40;;
12780;SDS011;6454;43.304;24.344;2022-08-19T01:08:09;5.85;;;5.32;;
12780;SDS011;6454;43.304;24.344;2022-08-19T01:10:40;5.15;;;4.65;;
12780;SDS011;6454;43.304;24.344;2022-08-19T01:13:09;5.10;;;4.70;;
12780;SDS011;6454;43.304;24.344;2022-08-19T01:15:40;6.60;;;5.13;;
12780;SDS011;6454;43.304;24.344;2022-08-19T01:18:11;5.53;;;5.00;;
12780;SDS011;6454;43.304;24.344;2022-08-19T01:20:40;7.88;;;5.30;;
12780;SDS011;6454;43.304;24.344;2022-08-19T01:23:10;5.47;;;4.97;;
12780;SDS011;6454;43.304;24.344;2022-08-19T01:25:39;5.30;;;4.88;;
12780;SDS011;6454;43.304;24.344;2022-08-19T01:28:14;5.43;;;4.72;;
12780;SDS011;6454;43.304;24.344;2022-08-19T01:30:43;5.47;;;4.90;;
12780;SDS011;6454;43.304;24.344;2022-08-19T01:33:10;5.30;;;4.80;;
12780;SDS011;6454;43.304;24.344;2022-08-19T01:35:37;5.38;;;4.88;;
12780;SDS011;6454;43.304;24.344;2022-08-19T01:38:05;5.10;;;4.70;;
12780;SDS011;6454;43.304;24.344;2022-08-19T01:40:38;5.70;;;5.20;;
12780;SDS011;6454;43.304;24.344;2022-08-19T01:43:07;5.45;;;4.95;;
12780;SDS011;6454;43.304;24.344;2022-08-19T01:45:35;6.13;;;4.80;;
12780;SDS011;6454;43.304;24.344;2022-08-19T01:48:05;5.05;;;4.55;;
12780;SDS011;6454;43.304;24.344;2022-08-19T01:50:33;5.80;;;5.10;;
12780;SDS011;6454;43.304;24.344;2022-08-19T01:53:01;6.95;;;4.88;;
12780;SDS011;6454;43.304;24.344;2022-08-19T01:55:30;5.15;;;4.75;;
12780;SDS011;6454;43.304;24.344;2022-08-19T01:58:00;6.05;;;5.07;;
12780;SDS011;6454;43.304;24.344;2022-08-19T02:00:31;5.70;;;5.20;;
12780;SDS011;6454;43.304;24.344;2022-08-19T02:02:58;5.20;;;4.70;;
12780;SDS011;6454;43.304;24.344;2022-08-19T02:05:26;5.60;;;5.05;;
12780;SDS011;6454;43.304;24.344;2022-08-19T02:07:54;5.78;;;5.10;;
12780;SDS011;6454;43.304;24.344;2022-08-19T02:10:21;5.60;;;5.10;;
12780;SDS011;6454;43.304;24.344;2022-08-19T02:12:49;5.70;;;5.20;;
12780;SDS011;6454;43.304;24.344;2022-08-19T02:15:17;5.78;;;5.15;;
12780;SDS011;6454;43.304;24.344;2022-08-19T02:17:45;6.85;;;4.90;;
12780;SDS011;6454;43.304;24.344;2022-08-19T02:20:12;5.65;;;5.15;;
12780;SDS011;6454;43.304;24.344;2022-08-19T02:22:40;5.78;;;4.90;;
12780;SDS011;6454;43.304;24.344;2022-08-19T02:25:08;7.18;;;5.25;;
12780;SDS011;6454;43.304;24.344;2022-08-19T02:27:36;6.15;;;5.55;;
12780;SDS011;6454;43.304;24.344;2022-08-19T02:30:04;6.70;;;5.45;;
12780;SDS011;6454;43.304;24.344;2022-08-19T02:32:35;9.98;;;5.65;;
12780;SDS011;6454;43.304;24.344;2022-08-19T02:35:02;6.53;;;5.10;;
12780;SDS011;6454;43.304;24.344;2022-08-19T02:37:29;7.18;;;5.53;;
12780;SDS011;6454;43.304;24.344;2022-08-19T02:40:14;5.22;;;4.80;;
12780;SDS011;6454;43.304;24.344;2022-08-19T02:42:42;6.88;;;5.10;;
12780;SDS011;6454;43.304;24.344;2022-08-19T02:45:10;7.60;;;5.30;;
12780;SDS011;6454;43.304;24.344;2022-08-19T02:47:39;6.38;;;5.13;;
12780;SDS011;6454;43.304;24.344;2022-08-19T02:50:07;6.82;;;5.25;;
12780;SDS011;6454;43.304;24.344;2022-08-19T02:52:34;5.65;;;5.10;;
12780;SDS011;6454;43.304;24.344;2022-08-19T02:55:01;5.53;;;4.95;;
12780;SDS011;6454;43.304;24.344;2022-08-19T02:57:29;5.45;;;4.90;;
12780;SDS011;6454;43.304;24.344;2022-08-19T02:59:58;5.63;;;5.13;;
12780;SDS011;6454;43.304;24.344;2022-08-19T03:02:26;5.55;;;5.05;;
12780;SDS011;6454;43.304;24.344;2022-08-19T03:04:54;6.10;;;5.07;;
12780;SDS011;6454;43.304;24.344;2022-08-19T03:07:21;6.72;;;5.20;;
12780;SDS011;6454;43.304;24.344;2022-08-19T03:09:48;5.13;;;4.63;;
12780;SDS011;6454;43.304;24.344;2022-08-19T03:12:15;5.75;;;5.25;;
12780;SDS011;6454;43.304;24.344;2022-08-19T03:14:42;6.00;;;5.40;;
12780;SDS011;6454;43.304;24.344;2022-08-19T03:17:09;5.80;;;5.28;;
12780;SDS011;6454;43.304;24.344;2022-08-19T03:19:36;5.45;;;4.95;;
12780;SDS011;6454;43.304;24.344;2022-08-19T03:22:04;5.65;;;5.20;;
12780;SDS011;6454;43.304;24.344;2022-08-19T03:24:33;5.47;;;4.82;;
12780;SDS011;6454;43.304;24.344;2022-08-19T03:26:59;5.80;;;5.30;;
12780;SDS011;6454;43.304;24.344;2022-08-19T03:29:28;5.50;;;5.00;;
12780;SDS011;6454;43.304;24.344;2022-08-19T03:31:56;5.47;;;5.00;;
12780;SDS011;6454;43.304;24.344;2022-08-19T03:34:26;6.22;;;4.88;;
12780;SDS011;6454;43.304;24.344;2022-08-19T03:36:56;5.93;;;5.43;;
12780;SDS011;6454;43.304;24.344;2022-08-19T03:39:26;8.10;;;5.32;;
12780;SDS011;6454;43.304;24.344;2022-08-19T03:41:53;5.60;;;5.10;;
12780;SDS011;6454;43.304;24.344;2022-08-19T03:44:22;6.20;;;5.32;;
12780;SDS011;6454;43.304;24.344;2022-08-19T03:46:50;5.40;;;4.90;;
12780;SDS011;6454;43.304;24.344;2022-08-19T03:49:19;5.60;;;5.10;;
12780;SDS011;6454;43.304;24.344;2022-08-19T03:51:47;5.72;;;5.13;;
12780;SDS011;6454;43.304;24.344;2022-08-19T03:54:16;7.90;;;5.20;;
12780;SDS011;6454;43.304;24.344;2022-08-19T03:56:46;6.43;;;5.43;;
12780;SDS011;6454;43.304;24.344;2022-08-19T03:59:16;6.38;;;5.45;;
12780;SDS011;6454;43.304;24.344;2022-08-19T04:01:45;6.30;;;5.00;;
12780;SDS011;6454;43.304;24.344;2022-08-19T04:04:12;6.18;;;5.57;;
12780;SDS011;6454;43.304;24.344;2022-08-19T04:06:39;5.75;;;5.18;;
12780;SDS011;6454;43.304;24.344;2022-08-19T04:09:07;6.25;;;5.53;;
12780;SDS011;6454;43.304;24.344;2022-08-19T04:11:36;5.57;;;4.88;;
12780;SDS011;6454;43.304;24.344;2022-08-19T04:14:08;5.70;;;5.20;;
12780;SDS011;6454;43.304;24.344;2022-08-19T04:16:36;5.70;;;5.20;;
12780;SDS011;6454;43.304;24.344;2022-08-19T04:19:03;6.03;;;5.43;;
12780;SDS011;6454;43.304;24.344;2022-08-19T04:21:31;5.53;;;5.03;;
12780;SDS011;6454;43.304;24.344;2022-08-19T04:23:59;5.65;;;5.15;;
12780;SDS011;6454;43.304;24.344;2022-08-19T04:26:27;6.22;;;5.63;;
12780;SDS011;6454;43.304;24.344;2022-08-19T04:28:57;6.55;;;5.95;;
12780;SDS011;6454;43.304;24.344;2022-08-19T04:31:26;6.03;;;5.32;;
12780;SDS011;6454;43.304;24.344;2022-08-19T04:33:54;5.72;;;5.22;;
12780;SDS011;6454;43.304;24.344;2022-08-19T04:36:23;5.35;;;4.95;;
12780;SDS011;6454;43.304;24.344;2022-08-19T04:38:53;6.82;;;5.68;;
12780;SDS011;6454;43.304;24.344;2022-08-19T04:41:20;8.13;;;5.70;;
12780;SDS011;6454;43.304;24.344;2022-08-19T04:44:05;7.22;;;5.80;;
12780;SDS011;6454;43.304;24.344;2022-08-19T04:46:33;25.52;;;13.32;;
12780;SDS011;6454;43.304;24.344;2022-08-19T04:49:01;32.72;;;16.60;;
12780;SDS011;6454;43.304;24.344;2022-08-19T04:51:31;32.53;;;17.63;;
12780;SDS011;6454;43.304;24.344;2022-08-19T04:53:58;26.88;;;15.45;;
12780;SDS011;6454;43.304;24.344;2022-08-19T04:56:27;26.45;;;16.30;;
12780;SDS011;6454;43.304;24.344;2022-08-19T04:58:54;30.92;;;17.10;;
12780;SDS011;6454;43.304;24.344;2022-08-19T05:01:23;31.50;;;18.25;;
12780;SDS011;6454;43.304;24.344;2022-08-19T05:03:53;23.52;;;15.43;;
12780;SDS011;6454;43.304;24.344;2022-08-19T05:06:22;30.67;;;13.95;;
12780;SDS011;6454;43.304;24.344;2022-08-19T05:08:50;13.93;;;9.63;;
12780;SDS011;6454;43.304;24.344;2022-08-19T05:11:18;10.88;;;8.43;;
12780;SDS011;6454;43.304;24.344;2022-08-19T05:13:47;10.65;;;6.80;;
12780;SDS011;6454;43.304;24.344;2022-08-19T05:16:15;8.52;;;7.38;;
12780;SDS011;6454;43.304;24.344;2022-08-19T05:18:44;18.88;;;11.88;;
12780;SDS011;6454;43.304;24.344;2022-08-19T05:21:30;21.48;;;11.13;;
12780;SDS011;6454;43.304;24.344;2022-08-19T05:24:16;17.73;;;10.70;;
12780;SDS011;6454;43.304;24.344;2022-08-19T05:26:44;17.60;;;10.82;;
12780;SDS011;6454;43.304;24.344;2022-08-19T05:29:13;11.45;;;6.68;;
12780;SDS011;6454;43.304;24.344;2022-08-19T05:31:42;7.40;;;5.93;;
12780;SDS011;6454;43.304;24.344;2022-08-19T05:34:09;9.20;;;5.70;;
12780;SDS011;6454;43.304;24.344;2022-08-19T05:36:39;8.30;;;5.32;;
12780;SDS011;6454;43.304;24.344;2022-08-19T05:39:09;10.10;;;5.68;;
12780;SDS011;6454;43.304;24.344;2022-08-19T05:41:40;9.27;;;5.20;;
12780;SDS011;6454;43.304;24.344;2022-08-19T05:44:08;8.18;;;5.88;;
12780;SDS011;6454;43.304;24.344;2022-08-19T05:46:35;13.60;;;6.07;;
12780;SDS011;6454;43.304;24.344;2022-08-19T05:49:04;14.10;;;5.20;;
12780;SDS011;6454;43.304;24.344;2022-08-19T05:51:32;7.03;;;4.47;;
12780;SDS011;6454;43.304;24.344;2022-08-19T05:54:01;6.75;;;4.90;;
12780;SDS011;6454;43.304;24.344;2022-08-19T05:56:29;5.88;;;5.28;;
12780;SDS011;6454;43.304;24.344;2022-08-19T05:58:56;13.27;;;4.80;;
12780;SDS011;6454;43.304;24.344;2022-08-19T06:01:25;5.15;;;4.65;;
12780;SDS011;6454;43.304;24.344;2022-08-19T06:03:52;4.97;;;4.57;;
12780;SDS011;6454;43.304;24.344;2022-08-19T06:06:21;8.50;;;4.57;;
12780;SDS011;6454;43.304;24.344;2022-08-19T06:08:48;5.85;;;4.50;;
12780;SDS011;6454;43.304;24.344;2022-08-19T06:11:18;4.70;;;4.25;;
12780;SDS011;6454;43.304;24.344;2022-08-19T06:13:47;6.43;;;4.57;;
12780;SDS011;6454;43.304;24.344;2022-08-19T06:16:17;6.13;;;4.32;;
12780;SDS011;6454;43.304;24.344;2022-08-19T06:18:48;5.20;;;4.65;;
12780;SDS011;6454;43.304;24.344;2022-08-19T06:21:17;4.35;;;3.95;;
12780;SDS011;6454;43.304;24.344;2022-08-19T06:23:45;4.65;;;4.25;;
12780;SDS011;6454;43.304;24.344;2022-08-19T06:26:12;4.28;;;3.88;;
12780;SDS011;6454;43.304;24.344;2022-08-19T06:28:41;7.55;;;4.97;;
12780;SDS011;6454;43.304;24.344;2022-08-19T06:31:10;5.75;;;4.28;;
12780;SDS011;6454;43.304;24.344;2022-08-19T06:33:39;8.77;;;4.85;;
12780;SDS011;6454;43.304;24.344;2022-08-19T06:36:06;8.13;;;4.95;;
12780;SDS011;6454;43.304;24.344;2022-08-19T06:38:33;6.30;;;4.85;;
12780;SDS011;6454;43.304;24.344;2022-08-19T06:41:01;7.63;;;5.07;;
12780;SDS011;6454;43.304;24.344;2022-08-19T06:43:28;5.15;;;4.53;;
12780;SDS011;6454;43.304;24.344;2022-08-19T06:45:56;5.80;;;4.32;;
12780;SDS011;6454;43.304;24.344;2022-08-19T06:48:24;6.07;;;4.32;;
12780;SDS011;6454;43.304;24.344;2022-08-19T06:50:51;4.80;;;4.07;;
12780;SDS011;6454;43.304;24.344;2022-08-19T06:53:18;5.30;;;4.20;;
12780;SDS011;6454;43.304;24.344;2022-08-19T06:55:45;5.55;;;4.53;;
12780;SDS011;6454;43.304;24.344;2022-08-19T06:58:12;4.68;;;4.00;;
12780;SDS011;6454;43.304;24.344;2022-08-19T07:00:39;5.05;;;4.63;;
12780;SDS011;6454;43.304;24.344;2022-08-19T07:03:08;5.78;;;5.18;;
12780;SDS011;6454;43.304;24.344;2022-08-19T07:05:38;8.38;;;4.88;;
12780;SDS011;6454;43.304;24.344;2022-08-19T07:08:06;5.40;;;4.90;;
12780;SDS011;6454;43.304;24.344;2022-08-19T07:10:32;5.78;;;4.90;;
12780;SDS011;6454;43.304;24.344;2022-08-19T07:13:00;5.97;;;4.95;;
12780;SDS011;6454;43.304;24.344;2022-08-19T07:15:27;5.18;;;4.68;;
12780;SDS011;6454;43.304;24.344;2022-08-19T07:17:53;6.88;;;4.68;;
12780;SDS011;6454;43.304;24.344;2022-08-19T07:20:22;5.82;;;5.07;;
12780;SDS011;6454;43.304;24.344;2022-08-19T07:22:49;5.28;;;4.72;;
12780;SDS011;6454;43.304;24.344;2022-08-19T07:25:16;6.35;;;4.93;;
12780;SDS011;6454;43.304;24.344;2022-08-19T07:27:43;5.43;;;5.00;;
12780;SDS011;6454;43.304;24.344;2022-08-19T07:30:11;5.80;;;5.15;;
12780;SDS011;6454;43.304;24.344;2022-08-19T07:32:38;6.93;;;5.35;;
12780;SDS011;6454;43.304;24.344;2022-08-19T07:35:05;6.60;;;5.47;;
12780;SDS011;6454;43.304;24.344;2022-08-19T07:37:35;5.32;;;4.80;;
12780;SDS011;6454;43.304;24.344;2022-08-19T07:40:04;6.75;;;4.97;;
12780;SDS011;6454;43.304;24.344;2022-08-19T07:42:32;6.68;;;5.03;;
12780;SDS011;6454;43.304;24.344;2022-08-19T07:44:59;5.22;;;4.82;;
12780;SDS011;6454;43.304;24.344;2022-08-19T07:47:26;8.63;;;5.22;;
12780;SDS011;6454;43.304;24.344;2022-08-19T07:49:53;5.60;;;5.05;;
12780;SDS011;6454;43.304;24.344;2022-08-19T07:52:21;7.65;;;5.53;;
12780;SDS011;6454;43.304;24.344;2022-08-19T07:54:49;5.93;;;5.40;;
12780;SDS011;6454;43.304;24.344;2022-08-19T07:57:16;5.80;;;5.15;;
12780;SDS011;6454;43.304;24.344;2022-08-19T07:59:44;8.95;;;5.50;;
12780;SDS011;6454;43.304;24.344;2022-08-19T08:02:11;6.60;;;6.00;;
12780;SDS011;6454;43.304;24.344;2022-08-19T08:04:38;6.80;;;5.55;;
12780;SDS011;6454;43.304;24.344;2022-08-19T08:07:22;5.38;;;4.88;;
12780;SDS011;6454;43.304;24.344;2022-08-19T08:10:08;7.13;;;5.22;;
12780;SDS011;6454;43.304;24.344;2022-08-19T08:12:37;5.93;;;5.38;;
12780;SDS011;6454;43.304;24.344;2022-08-19T08:15:07;5.95;;;4.90;;
12780;SDS011;6454;43.304;24.344;2022-08-19T08:17:36;9.90;;;5.38;;
12780;SDS011;6454;43.304;24.344;2022-08-19T08:20:04;7.38;;;5.35;;
12780;SDS011;6454;43.304;24.344;2022-08-19T08:22:33;6.00;;;5.32;;
12780;SDS011;6454;43.304;24.344;2022-08-19T08:25:20;7.93;;;5.30;;
12780;SDS011;6454;43.304;24.344;2022-08-19T08:27:49;5.25;;;4.80;;
12780;SDS011;6454;43.304;24.344;2022-08-19T08:30:18;7.47;;;5.20;;
12780;SDS011;6454;43.304;24.344;2022-08-19T08:32:46;5.70;;;5.15;;
12780;SDS011;6454;43.304;24.344;2022-08-19T08:35:15;6.03;;;4.90;;
12780;SDS011;6454;43.304;24.344;2022-08-19T08:37:43;7.72;;;4.93;;
12780;SDS011;6454;43.304;24.344;2022-08-19T08:40:13;5.88;;;4.78;;
12780;SDS011;6454;43.304;24.344;2022-08-19T08:42:48;7.03;;;5.28;;
12780;SDS011;6454;43.304;24.344;2022-08-19T08:45:25;8.63;;;5.25;;
12780;SDS011;6454;43.304;24.344;2022-08-19T08:47:55;7.05;;;5.50;;
12780;SDS011;6454;43.304;24.344;2022-08-19T08:50:29;7.05;;;5.45;;
12780;SDS011;6454;43.304;24.344;2022-08-19T08:53:01;5.80;;;5.30;;
12780;SDS011;6454;43.304;24.344;2022-08-19T08:55:31;5.85;;;5.30;;
12780;SDS011;6454;43.304;24.344;2022-08-19T08:57:59;6.50;;;5.13;;
12780;SDS011;6454;43.304;24.344;2022-08-19T09:00:29;6.05;;;5.30;;
12780;SDS011;6454;43.304;24.344;2022-08-19T09:02:58;10.07;;;5.00;;
12780;SDS011;6454;43.304;24.344;2022-08-19T09:05:30;6.80;;;5.10;;
12780;SDS011;6454;43.304;24.344;2022-08-19T09:08:05;6.32;;;5.30;;
12780;SDS011;6454;43.304;24.344;2022-08-19T09:10:39;5.45;;;4.80;;
12780;SDS011;6454;43.304;24.344;2022-08-19T09:13:13;5.95;;;5.22;;
12780;SDS011;6454;43.304;24.344;2022-08-19T09:15:50;5.35;;;4.85;;
12780;SDS011;6454;43.304;24.344;2022-08-19T09:18:20;5.03;;;4.63;;
12780;SDS011;6454;43.304;24.344;2022-08-19T09:20:47;5.40;;;4.72;;
12780;SDS011;6454;43.304;24.344;2022-08-19T09:23:14;4.95;;;4.55;;
12780;SDS011;6454;43.304;24.344;2022-08-19T09:25:43;5.20;;;4.72;;
12780;SDS011;6454;43.304;24.344;2022-08-19T09:28:10;5.47;;;4.93;;
12780;SDS011;6454;43.304;24.344;2022-08-19T09:30:38;6.40;;;4.85;;
12780;SDS011;6454;43.304;24.344;2022-08-19T09:33:07;5.15;;;4.63;;
12780;SDS011;6454;43.304;24.344;2022-08-19T09:35:35;6.10;;;4.78;;
12780;SDS011;6454;43.304;24.344;2022-08-19T09:38:02;5.53;;;5.03;;
12780;SDS011;6454;43.304;24.344;2022-08-19T09:40:29;7.45;;;4.70;;
12780;SDS011;6454;43.304;24.344;2022-08-19T09:42:58;6.05;;;5.00;;
12780;SDS011;6454;43.304;24.344;2022-08-19T09:45:27;5.40;;;5.00;;
12780;SDS011;6454;43.304;24.344;2022-08-19T09:47:55;5.20;;;4.70;;
12780;SDS011;6454;43.304;24.344;2022-08-19T09:50:23;5.45;;;4.95;;
12780;SDS011;6454;43.304;24.344;2022-08-19T09:52:50;5.30;;;4.80;;
12780;SDS011;6454;43.304;24.344;2022-08-19T09:55:22;5.20;;;4.70;;
12780;SDS011;6454;43.304;24.344;2022-08-19T09:57:49;5.25;;;4.75;;
12780;SDS011;6454;43.304;24.344;2022-08-19T10:00:20;6.57;;;4.95;;
12780;SDS011;6454;43.304;24.344;2022-08-19T10:02:47;5.68;;;5.13;;
12780;SDS011;6454;43.304;24.344;2022-08-19T10:05:14;6.57;;;4.90;;
12780;SDS011;6454;43.304;24.344;2022-08-19T10:07:58;5.47;;;4.60;;
12780;SDS011;6454;43.304;24.344;2022-08-19T10:10:26;5.53;;;4.82;;
12780;SDS011;6454;43.304;24.344;2022-08-19T10:12:54;6.72;;;4.88;;
12780;SDS011;6454;43.304;24.344;2022-08-19T10:15:22;5.03;;;4.57;;
12780;SDS011;6454;43.304;24.344;2022-08-19T10:17:49;5.97;;;5.13;;
12780;SDS011;6454;43.304;24.344;2022-08-19T10:20:17;7.00;;;5.00;;
12780;SDS011;6454;43.304;24.344;2022-08-19T10:22:44;7.68;;;5.15;;
12780;SDS011;6454;43.304;24.344;2022-08-19T10:25:11;6.18;;;4.93;;
12780;SDS011;6454;43.304;24.344;2022-08-19T10:27:39;6.75;;;5.10;;
12780;SDS011;6454;43.304;24.344;2022-08-19T10:30:07;6.15;;;5.43;;
12780;SDS011;6454;43.304;24.344;2022-08-19T10:32:39;5.80;;;5.28;;
12780;SDS011;6454;43.304;24.344;2022-08-19T10:35:06;5.18;;;4.78;;
12780;SDS011;6454;43.304;24.344;2022-08-19T10:37:34;7.80;;;5.15;;
12780;SDS011;6454;43.304;24.344;2022-08-19T10:40:03;6.30;;;5.05;;
12780;SDS011;6454;43.304;24.344;2022-08-19T10:42:32;5.45;;;4.93;;
12780;SDS011;6454;43.304;24.344;2022-08-19T10:45:00;5.60;;;4.72;;
12780;SDS011;6454;43.304;24.344;2022-08-19T10:47:28;5.15;;;4.65;;
12780;SDS011;6454;43.304;24.344;2022-08-19T10:49:57;5.43;;;5.03;;
12780;SDS011;6454;43.304;24.344;2022-08-19T10:52:42;5.05;;;4.55;;
12780;SDS011;6454;43.304;24.344;2022-08-19T10:55:11;5.07;;;4.53;;
12780;SDS011;6454;43.304;24.344;2022-08-19T10:57:55;4.93;;;4.47;;
12780;SDS011;6454;43.304;24.344;2022-08-19T11:00:23;4.85;;;4.35;;
12780;SDS011;6454;43.304;24.344;2022-08-19T11:02:50;6.05;;;4.40;;
12780;SDS011;6454;43.304;24.344;2022-08-19T11:05:19;7.78;;;4.90;;
12780;SDS011;6454;43.304;24.344;2022-08-19T11:07:47;7.05;;;4.43;;
12780;SDS011;6454;43.304;24.344;2022-08-19T11:10:15;6.47;;;4.72;;
12780;SDS011;6454;43.304;24.344;2022-08-19T11:12:44;5.50;;;4.93;;
12780;SDS011;6454;43.304;24.344;2022-08-19T11:15:12;5.70;;;4.70;;
12780;SDS011;6454;43.304;24.344;2022-08-19T11:17:39;7.38;;;4.65;;
12780;SDS011;6454;43.304;24.344;2022-08-19T11:20:09;5.53;;;4.97;;
12780;SDS011;6454;43.304;24.344;2022-08-19T11:22:39;5.45;;;4.47;;
12780;SDS011;6454;43.304;24.344;2022-08-19T11:25:06;4.80;;;4.38;;
12780;SDS011;6454;43.304;24.344;2022-08-19T11:27:33;5.25;;;4.57;;
12780;SDS011;6454;43.304;24.344;2022-08-19T11:30:04;5.68;;;5.13;;
12780;SDS011;6454;43.304;24.344;2022-08-19T11:32:32;5.80;;;4.70;;
12780;SDS011;6454;43.304;24.344;2022-08-19T11:34:59;6.70;;;4.30;;
12780;SDS011;6454;43.304;24.344;2022-08-19T11:37:26;6.13;;;4.95;;
12780;SDS011;6454;43.304;24.344;2022-08-19T11:39:55;6.20;;;4.82;;
12780;SDS011;6454;43.304;24.344;2022-08-19T11:42:22;7.68;;;4.22;;
12780;SDS011;6454;43.304;24.344;2022-08-19T11:45:07;8.50;;;4.90;;
12780;SDS011;6454;43.304;24.344;2022-08-19T11:47:35;4.88;;;4.43;;
12780;SDS011;6454;43.304;24.344;2022-08-19T11:50:04;5.22;;;4.53;;
12780;SDS011;6454;43.304;24.344;2022-08-19T11:52:31;6.40;;;5.28;;
12780;SDS011;6454;43.304;24.344;2022-08-19T11:55:00;5.68;;;5.05;;
12780;SDS011;6454;43.304;24.344;2022-08-19T11:57:27;5.78;;;5.28;;
12780;SDS011;6454;43.304;24.344;2022-08-19T11:59:54;7.30;;;4.60;;
12780;SDS011;6454;43.304;24.344;2022-08-19T12:02:21;5.47;;;4.82;;
12780;SDS011;6454;43.304;24.344;2022-08-19T12:04:48;5.00;;;4.50;;
12780;SDS011;6454;43.304;24.344;2022-08-19T12:07:15;7.00;;;5.20;;
12780;SDS011;6454;43.304;24.344;2022-08-19T12:09:42;6.63;;;4.80;;
12780;SDS011;6454;43.304;24.344;2022-08-19T12:12:10;5.38;;;4.88;;
12780;SDS011;6454;43.304;24.344;2022-08-19T12:14:37;5.32;;;4.82;;
12780;SDS011;6454;43.304;24.344;2022-08-19T12:17:04;6.78;;;4.57;;
12780;SDS011;6454;43.304;24.344;2022-08-19T12:19:32;5.60;;;4.20;;
12780;SDS011;6454;43.304;24.344;2022-08-19T12:22:00;4.55;;;4.07;;
12780;SDS011;6454;43.304;24.344;2022-08-19T12:24:29;7.22;;;4.72;;
12780;SDS011;6454;43.304;24.344;2022-08-19T12:26:57;8.65;;;4.47;;
12780;SDS011;6454;43.304;24.344;2022-08-19T12:29:28;7.35;;;4.90;;
12780;SDS011;6454;43.304;24.344;2022-08-19T12:31:56;5.35;;;4.75;;
12780;SDS011;6454;43.304;24.344;2022-08-19T12:34:27;5.97;;;4.40;;
12780;SDS011;6454;43.304;24.344;2022-08-19T12:36:56;8.25;;;4.65;;
12780;SDS011;6454;43.304;24.344;2022-08-19T12:39:23;5.53;;;4.45;;
12780;SDS011;6454;43.304;24.344;2022-08-19T12:41:51;5.40;;;4.47;;
12780;SDS011;6454;43.304;24.344;2022-08-19T12:44:18;5.05;;;4.50;;
12780;SDS011;6454;43.304;24.344;2022-08-19T12:46:47;5.60;;;4.47;;
12780;SDS011;6454;43.304;24.344;2022-08-19T12:49:15;5.68;;;5.18;;
12780;SDS011;6454;43.304;24.344;2022-08-19T12:51:42;5.93;;;5.30;;
12780;SDS011;6454;43.304;24.344;2022-08-19T12:54:09;5.40;;;4.90;;
12780;SDS011;6454;43.304;24.344;2022-08-19T12:56:36;5.65;;;5.15;;
12780;SDS011;6454;43.304;24.344;2022-08-19T12:59:03;6.00;;;5.50;;
12780;SDS011;6454;43.304;24.344;2022-08-19T13:01:30;6.10;;;5.15;;
12780;SDS011;6454;43.304;24.344;2022-08-19T13:03:59;5.05;;;4.55;;
12780;SDS011;6454;43.304;24.344;2022-08-19T13:06:26;5.70;;;4.53;;
12780;SDS011;6454;43.304;24.344;2022-08-19T13:08:53;5.30;;;4.65;;
12780;SDS011;6454;43.304;24.344;2022-08-19T13:11:22;6.07;;;4.72;;
12780;SDS011;6454;43.304;24.344;2022-08-19T13:13:50;4.90;;;4.50;;
12780;SDS011;6454;43.304;24.344;2022-08-19T13:16:20;5.18;;;4.70;;
12780;SDS011;6454;43.304;24.344;2022-08-19T13:18:47;5.45;;;4.95;;
12780;SDS011;6454;43.304;24.344;2022-08-19T13:21:18;6.60;;;4.30;;
12780;SDS011;6454;43.304;24.344;2022-08-19T13:23:48;6.32;;;4.93;;
12780;SDS011;6454;43.304;24.344;2022-08-19T13:26:15;7.82;;;4.93;;
12780;SDS011;6454;43.304;24.344;2022-08-19T13:28:43;6.10;;;5.55;;
12780;SDS011;6454;43.304;24.344;2022-08-19T13:31:30;7.97;;;5.28;;
12780;SDS011;6454;43.304;24.344;2022-08-19T13:34:16;6.25;;;5.60;;
12780;SDS011;6454;43.304;24.344;2022-08-19T13:36:46;5.85;;;5.25;;
12780;SDS011;6454;43.304;24.344;2022-08-19T13:39:13;5.68;;;5.18;;
12780;SDS011;6454;43.304;24.344;2022-08-19T13:41:42;7.35;;;4.90;;
12780;SDS011;6454;43.304;24.344;2022-08-19T13:44:12;5.60;;;5.07;;
12780;SDS011;6454;43.304;24.344;2022-08-19T13:46:40;6.03;;;5.22;;
12780;SDS011;6454;43.304;24.344;2022-08-19T13:49:10;7.10;;;5.43;;
12780;SDS011;6454;43.304;24.344;2022-08-19T13:51:37;7.05;;;5.53;;
12780;SDS011;6454;43.304;24.344;2022-08-19T13:54:07;5.88;;;5.38;;
12780;SDS011;6454;43.304;24.344;2022-08-19T13:56:34;6.68;;;5.20;;
12780;SDS011;6454;43.304;24.344;2022-08-19T13:59:05;6.53;;;5.35;;
12780;SDS011;6454;43.304;24.344;2022-08-19T14:01:32;7.25;;;5.35;;
12780;SDS011;6454;43.304;24.344;2022-08-19T14:04:00;9.80;;;5.22;;
12780;SDS011;6454;43.304;24.344;2022-08-19T14:06:27;6.10;;;5.50;;
12780;SDS011;6454;43.304;24.344;2022-08-19T14:08:53;6.13;;;5.18;;
12780;SDS011;6454;43.304;24.344;2022-08-19T14:11:22;5.97;;;5.40;;
12780;SDS011;6454;43.304;24.344;2022-08-19T14:13:49;5.78;;;5.28;;
12780;SDS011;6454;43.304;24.344;2022-08-19T14:16:16;6.97;;;5.45;;
12780;SDS011;6454;43.304;24.344;2022-08-19T14:18:43;7.65;;;5.53;;
12780;SDS011;6454;43.304;24.344;2022-08-19T14:21:14;5.93;;;5.43;;
12780;SDS011;6454;43.304;24.344;2022-08-19T14:23:42;5.50;;;4.85;;
12780;SDS011;6454;43.304;24.344;2022-08-19T14:26:11;6.25;;;5.00;;
12780;SDS011;6454;43.304;24.344;2022-08-19T14:28:41;7.60;;;5.32;;
12780;SDS011;6454;43.304;24.344;2022-08-19T14:31:09;7.35;;;5.53;;
12780;SDS011;6454;43.304;24.344;2022-08-19T14:33:36;7.35;;;4.97;;
12780;SDS011;6454;43.304;24.344;2022-08-19T14:36:03;6.68;;;5.20;;
12780;SDS011;6454;43.304;24.344;2022-08-19T14:38:31;7.32;;;5.20;;
12780;SDS011;6454;43.304;24.344;2022-08-19T14:41:08;8.48;;;5.05;;
12780;SDS011;6454;43.304;24.344;2022-08-19T14:43:38;6.93;;;4.82;;
12780;SDS011;6454;43.304;24.344;2022-08-19T14:46:07;5.65;;;4.95;;
12780;SDS011;6454;43.304;24.344;2022-08-19T14:48:35;6.68;;;4.90;;
12780;SDS011;6454;43.304;24.344;2022-08-19T14:51:04;4.60;;;4.20;;
12780;SDS011;6454;43.304;24.344;2022-08-19T14:53:31;5.13;;;4.63;;
12780;SDS011;6454;43.304;24.344;2022-08-19T14:55:59;5.38;;;4.43;;